Time;durP1;ratioP1;P1;durP2;ratioP2;P2;SDS_P1;SDS_P2;PMS_P1;PMS_P2;Temp;Humidity;BMP_temperature;BMP_pressure;BME280_temperature;BME280_humidity;BME280_pressure;Samples;Min_cycle;Max_cycle;Signal;HPM_P1;HPM_P2
2021/06/04 00:01:29;;;;;;;4.05;2.25;;;16.40;99.90;;;15.79;72.00;101267.63;5027298;28;20048;-52
2021/06/04 00:03:56;;;;;;;6.35;2.40;;;16.30;99.90;;;15.74;71.13;101264.66;5026893;28;20041;-49
2021/06/04 00:06:23;;;;;;;4.43;2.40;;;16.30;99.90;;;15.75;71.14;101258.41;5027571;28;20116;-49
2021/06/04 00:08:49;;;;;;;3.25;1.35;;;16.30;99.90;;;16.01;69.91;101255.72;5027973;28;20505;-53
2021/06/04 00:11:26;;;;;;;3.60;1.60;;;16.40;99.90;;;16.23;69.79;101255.09;5027759;28;20132;-51
2021/06/04 00:13:57;;;;;;;4.25;1.55;;;16.60;99.90;;;16.30;68.61;101257.91;5027543;28;20079;-53
2021/06/04 00:16:33;;;;;;;2.72;2.03;;;16.70;99.90;;;16.35;68.43;101257.41;5027335;28;20030;-51
2021/06/04 00:19:04;;;;;;;5.22;1.80;;;16.80;99.90;;;16.30;68.43;101271.03;5027914;28;20052;-51
2021/06/04 00:21:42;;;;;;;2.53;1.63;;;16.80;99.90;;;16.15;69.48;101268.22;5027577;28;20065;-50
2021/06/04 00:24:13;;;;;;;3.65;2.20;;;16.70;99.90;;;16.11;69.65;101272.16;5027966;28;20045;-55
2021/06/04 00:26:42;;;;;;;2.40;1.63;;;16.60;99.90;;;16.14;69.80;101276.25;5009517;28;20098;-54
2021/06/04 00:29:08;;;;;;;6.43;1.77;;;16.60;99.90;;;16.16;69.31;101276.94;5027570;28;20449;-52
2021/06/04 00:31:36;;;;;;;2.10;1.63;;;16.70;99.90;;;16.09;69.60;101270.66;5027261;28;20041;-54
2021/06/04 00:34:04;;;;;;;3.92;1.77;;;16.60;99.90;;;16.05;70.13;101270.19;5027809;28;20040;-49
2021/06/04 00:36:31;;;;;;;7.80;2.35;;;16.50;99.90;;;16.04;70.09;101273.81;5027520;28;20098;-51
2021/06/04 00:38:59;;;;;;;2.40;1.90;;;16.50;99.90;;;16.02;71.05;101275.78;5027899;28;20029;-53
2021/06/04 00:41:48;;;;;;;5.13;1.92;;;16.50;99.90;;;16.06;71.03;101284.16;5009646;28;20103;-50
2021/06/04 00:44:15;;;;;;;6.60;2.03;;;16.50;99.90;;;16.01;70.65;101278.56;5010614;28;20041;-50
2021/06/04 00:46:45;;;;;;;3.72;2.40;;;16.50;99.90;;;15.89;71.68;101283.28;5027131;28;20026;-48
2021/06/04 00:49:13;;;;;;;2.53;2.33;;;16.40;99.90;;;15.78;72.21;101287.00;5027549;28;20037;-51
2021/06/04 00:51:53;;;;;;;2.30;2.10;;;16.30;99.90;;;15.69;73.49;101287.13;5027532;28;20033;-50
2021/06/04 00:54:22;;;;;;;2.50;2.30;;;16.30;99.90;;;15.59;73.79;101285.47;5027698;28;20400;-48
2021/06/04 00:56:48;;;;;;;3.53;2.47;;;16.20;99.90;;;15.55;73.52;101289.34;5027159;28;20034;-52
2021/06/04 00:59:35;;;;;;;3.47;2.25;;;16.10;99.90;;;15.52;73.95;101287.03;5027423;28;20040;-51
2021/06/04 01:02:04;;;;;;;3.25;2.40;;;16.00;99.90;;;15.57;73.37;101294.50;5026976;28;20046;-49
2021/06/04 01:04:31;;;;;;;3.65;2.53;;;16.00;99.90;;;15.58;73.19;101296.97;5027528;28;20044;-53
2021/06/04 01:07:23;;;;;;;4.20;2.22;;;16.10;99.90;;;15.60;74.13;101291.50;5027432;28;20067;-51
2021/06/04 01:10:25;;;;;;;3.70;2.58;;;16.10;99.90;;;15.63;73.98;101285.13;4992054;28;20131;-47
2021/06/04 01:13:32;;;;;;;8.80;2.78;;;16.10;99.90;;;15.68;73.80;101280.22;4962592;28;20065;-53
2021/06/04 01:16:15;;;;;;;9.13;2.50;;;16.10;99.90;;;15.68;74.07;101285.47;5014921;28;20041;-53
2021/06/04 01:19:53;;;;;;;3.78;2.33;;;16.20;99.90;;;15.66;74.81;101287.44;5013302;28;20095;-53
2021/06/04 01:22:51;;;;;;;2.92;2.40;;;16.10;99.90;;;15.57;75.32;101292.69;5029642;28;20123;-52
2021/06/04 01:25:32;;;;;;;2.45;2.25;;;16.10;99.90;;;15.52;74.99;101297.53;4968870;28;20610;-48
2021/06/04 01:28:07;;;;;;;6.97;2.65;;;16.00;99.90;;;15.41;74.60;101295.19;4969275;28;20058;-52
2021/06/04 01:30:50;;;;;;;2.45;2.25;;;15.90;99.90;;;15.35;76.24;101302.84;4952160;28;20859;-46
2021/06/04 01:33:29;;;;;;;3.67;2.92;;;15.90;99.90;;;15.32;76.00;101297.91;4954194;28;20043;-50
2021/06/04 01:36:01;;;;;;;6.32;3.00;;;15.80;99.90;;;15.32;75.12;101297.91;4968364;28;20046;-49
2021/06/04 01:38:36;;;;;;;4.68;2.33;;;15.80;99.90;;;15.38;75.19;101297.28;4953432;28;20142;-53
2021/06/04 01:41:09;;;;;;;3.53;2.60;;;15.80;99.90;;;15.38;74.86;101295.50;4968648;28;20042;-53
2021/06/04 01:44:09;;;;;;;3.42;3.13;;;15.80;99.90;;;15.37;75.75;101296.47;4969136;28;20483;-52
2021/06/04 01:46:45;;;;;;;3.47;2.40;;;15.90;99.90;;;15.34;75.26;101298.59;4963312;28;20371;-47
2021/06/04 01:49:25;;;;;;;3.08;2.72;;;15.80;99.90;;;15.33;76.11;101297.75;4952873;28;20515;-49
2021/06/04 01:52:09;;;;;;;3.40;2.55;;;15.80;99.90;;;15.37;75.92;101293.84;4968600;28;20042;-52
2021/06/04 01:54:54;;;;;;;3.63;2.88;;;15.90;99.90;;;15.36;76.48;101294.81;4968746;28;20047;-54
2021/06/04 01:57:32;;;;;;;5.07;2.83;;;15.90;99.90;;;15.32;76.39;101290.03;4968441;28;20039;-50
2021/06/04 02:00:01;;;;;;;4.20;2.92;;;15.80;99.90;;;15.28;75.80;101284.28;4968819;28;20042;-52
2021/06/04 02:02:33;;;;;;;3.75;2.75;;;15.80;99.90;;;15.32;76.71;101292.66;4981784;28;20057;-49
2021/06/04 02:05:00;;;;;;;4.88;3.13;;;15.80;99.90;;;15.32;75.75;101290.84;4990865;28;20034;-49
2021/06/04 02:07:31;;;;;;;5.15;3.10;;;15.80;99.90;;;15.35;76.45;101282.69;4990401;28;20039;-48
2021/06/04 02:09:59;;;;;;;4.93;3.13;;;15.80;99.90;;;15.34;76.06;101280.19;4990671;28;20030;-51
2021/06/04 02:12:26;;;;;;;5.35;3.47;;;15.90;99.90;;;15.36;75.81;101280.88;4990183;28;20224;-48
2021/06/04 02:14:58;;;;;;;3.00;2.20;;;15.90;99.90;;;15.41;76.09;101289.94;4990976;28;20162;-46
2021/06/04 02:17:33;;;;;;;2.90;2.13;;;15.90;99.90;;;15.42;75.90;101288.94;4973195;28;20458;-49
2021/06/04 02:20:25;;;;;;;4.35;2.47;;;15.90;99.90;;;15.40;76.22;101287.47;4990735;28;20050;-47
2021/06/04 02:23:40;;;;;;;3.83;2.70;;;15.90;99.90;;;15.32;76.02;101285.59;4990046;28;20445;-47
2021/06/04 02:26:38;;;;;;;3.45;2.72;;;15.80;99.90;;;15.30;76.56;101290.19;5004248;28;20083;-48
2021/06/04 02:29:32;;;;;;;4.65;2.53;;;15.80;99.90;;;15.28;76.96;101297.41;4990479;28;20514;-47
2021/06/04 02:32:48;;;;;;;5.93;2.38;;;15.80;99.90;;;15.27;76.91;101283.44;5009661;28;20232;-52
2021/06/04 02:35:29;;;;;;;4.07;2.92;;;15.80;99.90;;;15.24;76.41;101283.75;4996900;28;20050;-47
2021/06/04 02:38:09;;;;;;;3.65;2.85;;;15.70;99.90;;;15.22;76.32;101287.50;5009504;28;20042;-47
2021/06/04 02:43:41;;;;;;;3.67;2.15;;;15.70;99.90;;;15.20;76.31;101278.97;4771009;22;20061;-50
2021/06/04 02:46:25;;;;;;;5.00;3.22;;;15.70;99.90;;;15.09;76.04;101279.25;4977377;28;20074;-48
2021/06/04 02:48:54;;;;;;;3.70;2.83;;;15.60;99.90;;;14.99;76.05;101283.75;4989989;28;20037;-52
2021/06/04 02:51:32;;;;;;;4.88;3.05;;;15.50;99.90;;;14.91;76.59;101293.22;4990406;28;20045;-50
2021/06/04 02:54:06;;;;;;;4.15;3.10;;;15.40;99.90;;;14.92;75.89;101287.00;4989919;28;20046;-49
2021/06/04 02:56:43;;;;;;;9.05;3.13;;;15.40;99.90;;;14.88;76.03;101285.66;4989807;28;20046;-49
2021/06/04 02:59:28;;;;;;;8.00;3.05;;;15.40;99.90;;;14.88;76.14;101297.94;4989823;28;20042;-51
2021/06/04 03:02:32;;;;;;;4.38;2.92;;;15.40;99.90;;;14.78;77.00;101290.16;4990001;28;20046;-51
2021/06/04 03:05:17;;;;;;;3.50;2.53;;;15.30;99.90;;;14.79;76.23;101289.19;4970028;28;20054;-51
2021/06/04 03:07:43;;;;;;;4.43;3.28;;;15.30;99.90;;;14.69;76.11;101298.09;4989874;28;20125;-52
2021/06/04 03:10:24;;;;;;;5.60;3.13;;;15.20;99.90;;;14.72;76.56;101298.63;4989679;28;20042;-53
2021/06/04 03:12:51;;;;;;;3.38;3.08;;;15.20;99.90;;;14.80;76.06;101301.31;4989640;28;20038;-54
2021/06/04 03:15:37;;;;;;;3.92;2.53;;;15.30;99.90;;;14.89;77.37;101295.16;4989450;28;20042;-51
2021/06/04 03:18:06;;;;;;;5.03;3.28;;;15.30;99.90;;;14.92;76.37;101300.13;4989608;28;20061;-53
2021/06/04 03:20:38;;;;;;;5.45;2.72;;;15.40;99.90;;;14.90;76.58;101301.25;4989499;28;20026;-51
2021/06/04 03:23:09;;;;;;;3.75;2.97;;;15.40;99.90;;;14.88;76.75;101304.03;4989243;28;20129;-49
2021/06/04 03:25:41;;;;;;;3.50;3.20;;;15.40;99.90;;;14.85;76.86;101298.25;4989246;28;20510;-50
2021/06/04 03:28:14;;;;;;;3.03;2.67;;;15.40;99.90;;;14.89;76.91;101305.66;4989368;28;20065;-49
2021/06/04 03:30:44;;;;;;;3.20;3.00;;;15.40;99.90;;;14.90;76.70;101296.81;4989542;28;20050;-54
2021/06/04 03:33:14;;;;;;;4.63;3.10;;;15.40;99.90;;;14.91;76.79;101295.84;4971628;28;20070;-52
2021/06/04 03:35:41;;;;;;;4.72;3.30;;;15.40;99.90;;;14.81;76.89;101295.09;4972079;28;20453;-51
2021/06/04 03:38:09;;;;;;;4.03;3.30;;;15.40;99.90;;;14.86;76.91;101289.41;4987421;28;20173;-51
2021/06/04 03:40:36;;;;;;;6.00;3.65;;;15.40;99.90;;;14.85;76.42;101293.81;4989389;28;20041;-53
2021/06/04 03:43:08;;;;;;;5.45;3.17;;;15.40;99.90;;;14.82;76.30;101288.88;4988860;28;20048;-51
2021/06/04 03:45:40;;;;;;;6.25;3.97;;;15.30;99.90;;;14.85;75.97;101293.81;4989139;28;20070;-48
2021/06/04 03:48:10;;;;;;;5.57;3.75;;;15.40;99.90;;;14.85;75.84;101290.38;4989331;28;20121;-53
2021/06/04 03:50:36;;;;;;;7.53;3.83;;;15.40;99.90;;;14.90;75.64;101290.75;4988978;28;20056;-52
2021/06/04 03:53:07;;;;;;;5.10;4.15;;;15.40;99.90;;;14.96;75.45;101286.69;4988748;28;20030;-54
2021/06/04 03:55:36;;;;;;;7.10;3.95;;;15.50;99.90;;;15.01;75.10;101287.06;4988982;28;20469;-52
2021/06/04 03:58:03;;;;;;;5.93;3.97;;;15.50;99.90;;;15.05;75.08;101298.91;4989079;28;20196;-51
2021/06/04 04:00:39;;;;;;;4.93;3.75;;;15.60;99.90;;;15.08;75.21;101295.97;4988758;28;20035;-50
2021/06/04 04:03:06;;;;;;;5.28;3.72;;;15.60;99.90;;;15.16;74.77;101290.75;4988925;28;20117;-49
2021/06/04 04:05:33;;;;;;;5.63;3.97;;;15.70;99.90;;;16.18;72.40;101296.81;4989021;28;20584;-50
2021/06/04 04:08:06;;;;;;;4.95;3.53;;;16.70;99.90;;;17.39;68.46;101300.47;4988472;28;20027;-49
2021/06/04 04:10:33;;;;;;;5.55;2.30;;;18.20;99.90;;;17.90;66.55;101293.06;4988673;28;20042;-48
2021/06/04 04:13:00;;;;;;;3.25;2.90;;;19.00;99.90;;;18.81;64.20;101297.59;4988677;28;20034;-54
2021/06/04 04:15:28;;;;;;;5.40;2.20;;;20.10;99.90;;;19.74;61.31;101291.84;4970910;28;20535;-49
2021/06/04 04:17:59;;;;;;;6.07;2.13;;;21.20;98.30;;;19.98;59.78;101288.88;4988623;28;20031;-47
2021/06/04 04:20:37;;;;;;;3.80;1.92;;;21.60;95.50;;;19.92;60.15;101286.13;4970899;28;20103;-50
2021/06/04 04:23:06;;;;;;;1.83;1.73;;;21.60;95.30;;;20.56;59.28;101284.41;4988540;28;20070;-53
2021/06/04 04:25:37;;;;;;;5.22;1.77;;;22.30;94.30;;;20.33;59.37;101289.03;4988574;28;20413;-54
2021/06/04 04:28:07;;;;;;;2.67;1.90;;;22.30;92.70;;;20.88;58.28;101293.63;4988602;28;20039;-52
2021/06/04 04:30:34;;;;;;;2.60;1.90;;;22.80;91.70;;;21.74;55.96;101294.97;4988670;28;20453;-55
2021/06/04 04:33:01;;;;;;;4.00;1.60;;;23.70;88.70;;;22.32;53.84;101292.72;4971101;28;20069;-52
2021/06/04 04:35:32;;;;;;;3.13;2.30;;;24.70;82.10;;;23.24;51.62;101291.94;4988657;28;20030;-49
2021/06/04 04:37:59;;;;;;;2.35;1.55;;;25.80;75.50;;;23.78;50.10;101296.91;4988590;28;20427;-52
2021/06/04 04:40:28;;;;;;;2.13;1.65;;;26.60;69.90;;;23.38;50.10;101301.50;4988236;28;20026;-50
2021/06/04 04:42:55;;;;;;;3.25;1.73;;;26.20;68.30;;;23.42;50.82;101300.06;4988322;28;20465;-50
2021/06/04 04:45:26;;;;;;;3.90;1.27;;;26.00;70.30;;;23.58;49.41;101306.81;4988383;28;20093;-51
2021/06/04 04:47:52;;;;;;;7.80;2.08;;;26.10;69.00;;;22.62;52.73;101311.78;4988744;28;20572;-54
2021/06/04 04:50:20;;;;;;;3.67;1.58;;;25.50;68.60;;;22.24;53.61;101311.50;4991755;28;20038;-54
2021/06/04 04:52:47;;;;;;;4.63;1.63;;;25.10;70.10;;;23.10;51.12;101312.41;4992178;28;20501;-49
2021/06/04 04:55:15;;;;;;;2.72;1.60;;;25.30;70.30;;;23.25;50.24;101314.81;4992108;28;20130;-52
2021/06/04 04:57:42;;;;;;;4.75;2.13;;;25.60;69.20;;;22.94;52.07;101298.72;4992096;28;20034;-48
2021/06/04 05:00:13;;;;;;;2.08;1.92;;;25.40;69.60;;;22.74;52.07;101310.13;4992302;28;20057;-53
2021/06/04 05:02:39;;;;;;;3.67;2.08;;;25.30;69.00;;;22.83;51.73;101311.59;4992011;28;20313;-52
2021/06/04 05:05:06;;;;;;;3.85;1.60;;;25.50;68.50;;;23.01;51.76;101311.00;4992130;28;20325;-52
2021/06/04 05:07:32;;;;;;;2.97;1.98;;;25.60;68.50;;;23.25;51.24;101306.84;4992119;28;20375;-48
2021/06/04 05:09:58;;;;;;;3.30;1.83;;;25.80;67.80;;;22.98;51.54;101306.09;4991619;28;20041;-52
2021/06/04 05:12:25;;;;;;;2.55;1.75;;;25.70;67.90;;;23.06;51.44;101311.19;4991701;28;20034;-51
2021/06/04 05:14:51;;;;;;;3.92;1.92;;;25.60;68.40;;;23.05;51.68;101308.75;4991731;28;20104;-53
2021/06/04 05:17:18;;;;;;;3.80;1.75;;;25.60;67.60;;;23.80;49.81;101305.47;4991563;28;20109;-50
2021/06/04 05:19:47;;;;;;;3.88;2.10;;;26.10;66.80;;;24.01;48.58;101308.88;4991752;28;20183;-52
2021/06/04 05:22:14;;;;;;;6.15;1.65;;;26.80;65.00;;;23.93;49.24;101309.94;4973956;28;20083;-49
2021/06/04 05:24:41;;;;;;;2.40;1.88;;;26.70;64.80;;;24.58;47.99;101307.09;4991830;28;20035;-51
2021/06/04 05:27:08;;;;;;;2.83;1.85;;;27.10;64.30;;;24.85;47.09;101315.72;4991702;28;20038;-48
2021/06/04 05:29:34;;;;;;;4.00;2.08;;;27.80;62.40;;;24.65;47.74;101308.69;4973889;28;20043;-51
2021/06/04 05:32:00;;;;;;;8.32;1.95;;;27.80;61.80;;;24.46;48.20;101307.81;4991380;28;20117;-53
2021/06/04 05:34:26;;;;;;;2.42;2.00;;;27.40;61.90;;;24.37;48.38;101308.28;4991230;28;20393;-54
2021/06/04 05:36:52;;;;;;;4.70;2.35;;;27.20;62.40;;;24.82;47.33;101311.63;4991619;28;20030;-52
2021/06/04 05:39:23;;;;;;;7.72;1.90;;;27.80;60.90;;;25.12;46.58;101314.47;4991248;28;20030;-55
2021/06/04 05:41:55;;;;;;;4.07;2.00;;;28.30;59.90;;;25.11;47.21;101315.50;4991060;28;20034;-55
2021/06/04 05:44:25;;;;;;;7.10;2.85;;;28.30;60.00;;;25.12;46.62;101322.47;4991268;28;20154;-52
2021/06/04 05:46:56;;;;;;;2.00;1.48;;;28.60;58.90;;;25.66;45.53;101323.56;4991444;28;20062;-50
2021/06/04 05:49:22;;;;;;;2.30;1.60;;;28.80;58.60;;;25.39;46.34;101318.50;4991048;28;20034;-49
2021/06/04 05:51:51;;;;;;;4.70;1.13;;;28.80;58.30;;;25.82;45.05;101328.28;4990949;28;20038;-54
2021/06/04 05:54:19;;;;;;;2.45;1.65;;;29.00;57.70;;;26.04;44.79;101326.75;4990992;28;20113;-48
2021/06/04 05:56:46;;;;;;;4.82;2.05;;;29.20;57.60;;;24.89;47.52;101327.56;4991022;28;20457;-52
2021/06/04 05:59:15;;;;;;;13.80;2.25;;;28.70;58.20;;;24.96;47.16;101328.38;4990954;28;20437;-49
2021/06/04 06:01:42;;;;;;;11.10;2.13;;;28.40;58.10;;;25.20;46.74;101330.19;4971972;28;20210;-52
2021/06/04 06:04:08;;;;;;;6.65;1.52;;;28.30;58.70;;;25.09;46.86;101333.56;4973059;28;20022;-51
2021/06/04 06:06:35;;;;;;;3.13;1.15;;;28.10;59.10;;;24.77;47.14;101330.13;4990579;28;20038;-53
2021/06/04 06:09:02;;;;;;;3.92;2.05;;;28.00;59.00;;;24.63;47.91;101325.91;4990666;28;20030;-54
2021/06/04 06:11:29;;;;;;;3.90;1.67;;;27.60;60.00;;;24.95;46.98;101329.38;4990642;28;20072;-55
2021/06/04 06:14:00;;;;;;;3.88;1.38;;;27.90;59.60;;;24.92;46.88;101335.13;4988583;28;20055;-52
2021/06/04 06:16:29;;;;;;;2.38;1.30;;;28.10;58.60;;;25.49;45.83;101323.31;4968026;28;20065;-54
2021/06/04 06:18:56;;;;;;;5.47;1.40;;;28.50;58.10;;;25.77;45.10;101320.16;4970433;28;20043;-53
2021/06/04 06:21:23;;;;;;;1.48;1.20;;;29.30;56.90;;;25.71;45.32;101319.19;4990426;28;20038;-50
2021/06/04 06:23:49;;;;;;;2.90;1.30;;;29.20;56.90;;;26.27;44.14;101317.22;4990522;28;20030;-51
2021/06/04 06:26:24;;;;;;;7.07;1.30;;;29.40;56.70;;;26.45;43.27;101311.84;4990825;28;20038;-48
2021/06/04 06:28:52;;;;;;;1.98;1.48;;;29.80;55.80;;;26.50;43.64;101313.81;4990539;28;20049;-55
2021/06/04 06:31:24;;;;;;;5.13;1.40;;;30.00;55.40;;;26.08;44.35;101309.25;4990276;28;20049;-50
2021/06/04 06:33:52;;;;;;;5.90;1.25;;;29.90;55.10;;;27.04;43.33;101320.75;4990576;28;20038;-52
2021/06/04 06:36:26;;;;;;;5.22;1.27;;;30.50;55.20;;;27.02;43.10;101314.81;4972514;28;20133;-51
2021/06/04 06:38:55;;;;;;;5.47;1.23;;;30.70;54.20;;;26.99;43.36;101316.09;4972686;28;20038;-48
2021/06/04 06:41:23;;;;;;;3.03;1.10;;;30.30;54.90;;;27.33;42.91;101314.47;4990214;28;20095;-51
2021/06/04 06:43:51;;;;;;;2.95;1.40;;;30.70;54.60;;;27.11;42.83;101321.44;4987575;28;20046;-48
2021/06/04 06:46:20;;;;;;;3.28;1.55;;;30.70;53.80;;;26.92;43.46;101312.72;4990059;28;20093;-49
2021/06/04 06:48:46;;;;;;;2.35;1.20;;;30.00;55.30;;;27.05;43.17;101322.38;4972121;28;20494;-51
2021/06/04 06:51:14;;;;;;;6.50;1.48;;;30.20;55.30;;;27.71;41.44;101315.81;4990298;28;20030;-58
2021/06/04 06:53:42;;;;;;;6.53;1.63;;;31.40;52.60;;;28.16;40.03;101318.53;4989589;28;20038;-57
2021/06/04 06:56:12;;;;;;;2.58;1.23;;;31.90;51.30;;;28.57;39.21;101324.63;4989596;28;20037;-54
2021/06/04 06:58:39;;;;;;;2.38;1.27;;;32.00;50.90;;;28.54;39.03;101315.19;4989805;28;20285;-57
2021/06/04 07:01:06;;;;;;;2.65;1.42;;;32.40;50.50;;;28.90;38.64;101321.97;4989700;28;20070;-55
2021/06/04 07:03:37;;;;;;;4.00;1.13;;;32.60;50.20;;;28.78;38.76;101315.88;4989633;28;20592;-59
2021/06/04 07:06:10;;;;;;;3.17;1.48;;;32.80;49.40;;;28.27;38.95;101324.94;4989609;28;20034;-53
2021/06/04 07:08:36;;;;;;;4.40;1.50;;;32.20;49.60;;;28.33;38.57;101318.63;4989356;28;20038;-52
2021/06/04 07:11:03;;;;;;;2.55;1.67;;;32.00;49.80;;;27.14;41.18;101326.34;4989517;28;20034;-56
2021/06/04 07:13:29;;;;;;;2.53;1.15;;;29.90;53.80;;;26.06;43.91;101330.03;4989075;28;20046;-56
2021/06/04 07:16:00;;;;;;;5.90;1.83;;;28.00;58.30;;;25.76;44.65;101332.69;4989275;28;20031;-51
2021/06/04 07:18:27;;;;;;;2.60;1.65;;;26.80;60.40;;;25.54;45.27;101323.44;4989033;28;20038;-55
2021/06/04 07:20:53;;;;;;;5.20;1.80;;;26.40;61.80;;;24.48;48.31;101316.41;4989525;28;20031;-56
2021/06/04 07:23:20;;;;;;;2.95;1.50;;;25.70;64.00;;;24.51;48.46;101315.16;4989029;28;20030;-52
2021/06/04 07:25:47;;;;;;;3.22;1.65;;;25.40;65.20;;;24.60;48.14;101319.16;4971510;28;20378;-51
2021/06/04 07:28:16;;;;;;;4.70;1.98;;;25.50;65.00;;;24.65;48.01;101316.69;4989102;28;20030;-53
2021/06/04 07:30:46;;;;;;;5.63;1.70;;;25.40;65.30;;;24.81;47.61;101321.47;4988898;28;20042;-56
2021/06/04 07:33:31;;;;;;;3.50;1.75;;;25.50;65.50;;;25.48;46.16;101321.69;4971461;28;20030;-56
2021/06/04 07:35:59;;;;;;;2.17;1.50;;;25.80;64.90;;;25.40;45.62;101317.47;4989050;28;20481;-55
2021/06/04 07:38:25;;;;;;;4.95;1.80;;;26.20;63.50;;;25.52;45.91;101327.41;4988857;28;20401;-53
2021/06/04 07:40:53;;;;;;;3.60;1.98;;;26.20;63.80;;;25.41;45.60;101327.09;4988918;28;20108;-51
2021/06/04 07:43:28;;;;;;;5.18;1.52;;;26.20;63.80;;;25.52;46.15;101324.75;4988954;28;20061;-55
2021/06/04 07:45:54;;;;;;;4.03;2.08;;;26.20;64.20;;;25.73;45.48;101334.97;4988942;28;20261;-55
2021/06/04 07:48:20;;;;;;;3.70;1.50;;;26.40;63.70;;;25.39;46.26;101329.16;4988723;28;20042;-55
2021/06/04 07:50:51;;;;;;;4.25;1.50;;;26.20;64.40;;;25.72;45.60;101328.81;4988799;28;20481;-54
2021/06/04 07:53:23;;;;;;;4.95;1.95;;;26.30;64.50;;;25.75;46.39;101322.22;4971366;28;20125;-57
2021/06/04 07:55:49;;;;;;;2.45;1.75;;;26.50;64.70;;;25.93;45.33;101324.88;4988591;28;20034;-51
2021/06/04 07:58:16;;;;;;;8.40;1.60;;;26.50;64.40;;;25.93;45.72;101322.22;4988496;28;20078;-51
2021/06/04 08:00:42;;;;;;;3.25;2.03;;;26.60;64.20;;;26.40;44.93;101314.38;4971120;28;20399;-52
2021/06/04 08:03:10;;;;;;;3.85;1.65;;;26.90;64.60;;;26.89;44.21;101323.06;4954781;28;20038;-53
2021/06/04 08:05:38;;;;;;;4.80;2.15;;;27.40;64.20;;;27.06;44.49;101314.13;4988443;28;20029;-50
2021/06/04 08:08:06;;;;;;;2.25;1.92;;;27.70;63.90;;;26.89;44.25;101317.72;4970983;28;20486;-51
2021/06/04 08:10:33;;;;;;;2.58;1.48;;;27.60;62.60;;;26.59;44.08;101317.78;4988796;28;20092;-48
2021/06/04 08:13:01;;;;;;;4.78;1.50;;;27.40;62.80;;;26.97;43.72;101320.06;4988614;28;20034;-49
2021/06/04 08:15:42;;;;;;;5.18;1.42;;;27.60;62.90;;;27.46;42.91;101315.25;4988302;28;20038;-50
2021/06/04 08:18:08;;;;;;;2.03;1.48;;;27.90;62.60;;;27.63;41.97;101316.19;4988250;28;20183;-47
2021/06/04 08:20:38;;;;;;;2.47;1.40;;;28.10;61.70;;;28.02;40.67;101323.38;4988178;28;20035;-48
2021/06/04 08:23:16;;;;;;;4.10;1.40;;;28.40;60.70;;;27.86;40.09;101317.97;4987829;28;20157;-48
2021/06/04 08:25:48;;;;;;;9.93;1.67;;;28.50;59.70;;;28.02;40.16;101318.00;4988437;28;20036;-47
2021/06/04 08:28:16;;;;;;;4.07;1.70;;;28.60;59.60;;;27.87;41.25;101314.25;4988244;28;20125;-48
2021/06/04 08:30:43;;;;;;;3.55;1.90;;;28.50;60.10;;;28.09;40.96;101304.47;4970541;28;20065;-50
2021/06/04 08:33:10;;;;;;;3.10;1.45;;;28.70;60.10;;;28.22;40.21;101306.91;4988144;28;20386;-49
2021/06/04 08:35:37;;;;;;;1.80;1.48;;;28.80;59.40;;;28.16;40.42;101294.44;4988132;28;20068;-47
2021/06/04 08:38:05;;;;;;;2.85;1.73;;;28.80;58.90;;;28.59;39.32;101290.34;4988021;28;20386;-50
2021/06/04 08:40:36;;;;;;;2.83;1.40;;;29.00;58.90;;;28.90;39.15;101297.00;4954253;28;20133;-51
2021/06/04 08:43:38;;;;;;;4.25;1.33;;;29.40;58.50;;;28.49;38.44;101296.34;4987878;28;20134;-47
2021/06/04 08:46:25;;;;;;;3.38;1.52;;;29.30;57.30;;;28.42;39.77;101290.34;4988274;28;20607;-50
2021/06/04 08:49:20;;;;;;;2.58;1.38;;;28.90;58.70;;;28.57;39.39;101282.56;4970198;28;20042;-53
2021/06/04 08:52:13;;;;;;;2.90;1.10;;;29.10;58.90;;;29.10;39.18;101275.84;4988058;28;20042;-49
2021/06/04 08:55:02;;;;;;;5.72;1.92;;;29.40;59.10;;;29.32;38.65;101275.84;4988077;28;20343;-51
2021/06/04 08:57:41;;;;;;;3.22;1.40;;;29.70;58.30;;;29.30;38.86;101278.00;4988087;28;20034;-49
2021/06/04 09:00:31;;;;;;;7.10;1.48;;;29.80;58.20;;;29.37;38.02;101270.53;4970582;28;20062;-50
2021/06/04 09:03:19;;;;;;;4.25;2.25;;;29.80;57.60;;;29.53;37.84;101272.38;4971274;28;20034;-51
2021/06/04 09:06:01;;;;;;;4.78;2.55;;;30.00;57.80;;;29.76;37.75;101267.81;4955970;28;20105;-51
2021/06/04 09:08:33;;;;;;;4.50;1.98;;;30.10;57.60;;;29.98;36.43;101265.88;4988158;28;20038;-52
2021/06/04 09:11:32;;;;;;;5.32;2.22;;;30.30;57.10;;;29.46;37.02;101270.94;4970607;28;20358;-50
2021/06/04 09:13:58;;;;;;;5.93;3.60;;;30.00;56.30;;;28.86;38.50;101271.75;4988042;28;20405;-49
2021/06/04 09:16:49;;;;;;;2.58;1.70;;;29.60;57.00;;;28.60;38.34;101265.16;4988135;28;20034;-50
2021/06/04 09:19:35;;;;;;;3.08;2.72;;;29.40;57.10;;;28.22;39.50;101268.56;4970284;28;20216;-51
2021/06/04 09:22:01;;;;;;;;;;;29.00;57.90;;;28.92;39.12;101271.56;4988224;28;20042;-53
2021/06/04 09:24:43;;;;;;;3.08;2.50;;;29.20;58.30;;;29.22;38.14;101271.19;4988114;28;19940;-52
2021/06/04 09:27:36;;;;;;;3.88;2.50;;;29.50;57.80;;;29.24;37.68;101271.75;4987571;28;20035;-50
2021/06/04 09:30:14;;;;;;;7.65;4.55;;;29.50;57.30;;;28.59;39.39;101269.72;4987495;28;20046;-52
2021/06/04 09:32:57;;;;;;;6.68;2.65;;;29.30;58.00;;;28.85;39.95;101278.16;4988218;28;20046;-51
2021/06/04 09:35:24;;;;;;;5.22;2.67;;;29.10;59.10;;;29.28;39.05;101278.25;4989393;28;20109;-52
2021/06/04 09:37:50;;;;;;;4.90;2.70;;;29.50;58.70;;;29.43;38.42;101274.94;4991171;28;20061;-50
2021/06/04 09:40:31;;;;;;;4.80;3.30;;;29.80;57.60;;;29.35;38.02;101278.84;4991537;28;20517;-54
2021/06/04 09:42:59;;;;;;;5.47;3.00;;;29.80;57.30;;;29.02;39.35;101287.00;4990842;28;20498;-52
2021/06/04 09:45:37;;;;;;;5.15;2.47;;;29.60;58.10;;;28.55;40.58;101278.50;4990752;28;20631;-47
2021/06/04 09:48:35;;;;;;;5.78;2.60;;;29.00;59.40;;;29.03;39.52;101281.38;4973533;28;20049;-53
2021/06/04 09:51:22;;;;;;;6.32;2.25;;;29.30;58.80;;;29.39;39.38;101279.97;4975897;28;20129;-52
2021/06/04 09:53:50;;;;;;;5.97;2.33;;;29.70;58.90;;;29.27;40.00;101275.81;4973315;28;20050;-53
2021/06/04 09:56:26;;;;;;;9.90;2.47;;;29.70;59.00;;;29.43;39.73;101271.44;4973434;28;20138;-51
2021/06/04 09:59:10;;;;;;;5.32;2.38;;;29.70;59.20;;;29.77;38.82;101270.25;4991037;28;20050;-52
2021/06/04 10:01:51;;;;;;;7.43;2.70;;;30.00;58.70;;;28.93;38.38;101272.38;4973798;28;20068;-52
2021/06/04 10:04:37;;;;;;;8.02;2.08;;;29.60;57.00;;;28.96;40.37;101271.88;4990649;28;20038;-50
2021/06/04 10:07:18;;;;;;;4.18;2.05;;;29.40;59.30;;;29.25;38.73;101264.50;4972534;28;20100;-52
2021/06/04 10:09:46;;;;;;;6.30;2.15;;;29.60;58.20;;;29.03;39.78;101262.59;4974314;28;20062;-49
2021/06/04 10:12:35;;;;;;;6.18;2.05;;;29.30;59.10;;;29.03;38.82;101261.78;4972849;28;20074;-54
2021/06/04 10:15:29;;;;;;;2.90;2.10;;;29.50;57.70;;;29.00;39.35;101260.41;4990836;28;20034;-50
2021/06/04 10:20:48;;;;;;;1.88;1.70;;;29.40;57.80;;;28.95;39.38;101256.84;4990263;28;20129;-54
2021/06/04 10:23:19;;;;;;;4.35;1.77;;;29.30;58.60;;;29.59;38.94;101263.34;4972569;28;20062;-54
2021/06/04 10:25:58;;;;;;;7.03;2.45;;;29.70;58.90;;;30.01;38.04;101255.47;4972534;28;20093;-53
2021/06/04 10:28:42;;;;;;;5.22;2.33;;;30.10;58.40;;;30.19;37.95;101254.28;4990141;28;20030;-54
2021/06/04 10:31:17;;;;;;;5.07;2.17;;;30.50;57.70;;;29.70;37.92;101264.25;4989978;28;20132;-54
2021/06/04 10:33:54;;;;;;;3.97;2.30;;;30.30;56.90;;;29.63;38.34;101263.66;4990287;28;20109;-49
2021/06/04 10:36:25;;;;;;;4.78;2.53;;;30.10;57.60;;;29.86;37.91;101267.91;4991062;28;20058;-52
2021/06/04 10:39:00;;;;;;;3.83;2.47;;;30.20;57.20;;;29.68;37.74;101250.28;4990860;28;20107;-53
2021/06/04 10:41:43;;;;;;;5.15;2.03;;;30.10;57.20;;;30.03;37.62;101253.34;4973072;28;20169;-50
2021/06/04 10:44:44;;;;;;;2.83;1.85;;;30.30;57.10;;;29.57;38.18;101254.72;4990226;28;20113;-51
2021/06/04 10:48:27;;;;;;;3.25;2.40;;;30.10;57.60;;;29.10;39.79;101253.56;4972113;28;20557;-54